sensor_id;sensor_type;location;lat;lon;timestamp;P1;durP1;ratioP1;P2;durP2;ratioP2
11797;SDS011;5956;51.428;6.682;2022-07-29T00:01:15;4.93;;;1.85;;
11797;SDS011;5956;51.428;6.682;2022-07-29T00:03:41;5.43;;;1.90;;
11797;SDS011;5956;51.428;6.682;2022-07-29T00:06:08;3.10;;;1.83;;
11797;SDS011;5956;51.428;6.682;2022-07-29T00:08:34;4.00;;;1.80;;
11797;SDS011;5956;51.428;6.682;2022-07-29T00:11:01;2.58;;;1.83;;
11797;SDS011;5956;51.428;6.682;2022-07-29T00:13:27;2.60;;;2.17;;
11797;SDS011;5956;51.428;6.682;2022-07-29T00:15:54;1.95;;;1.75;;
11797;SDS011;5956;51.428;6.682;2022-07-29T00:18:22;3.25;;;2.00;;
11797;SDS011;5956;51.428;6.682;2022-07-29T00:20:48;4.28;;;2.13;;
11797;SDS011;5956;51.428;6.682;2022-07-29T00:23:15;2.10;;;1.90;;
11797;SDS011;5956;51.428;6.682;2022-07-29T00:25:41;4.45;;;2.10;;
11797;SDS011;5956;51.428;6.682;2022-07-29T00:28:08;5.32;;;1.95;;
11797;SDS011;5956;51.428;6.682;2022-07-29T00:30:34;5.82;;;2.42;;
11797;SDS011;5956;51.428;6.682;2022-07-29T00:33:01;5.78;;;2.08;;
11797;SDS011;5956;51.428;6.682;2022-07-29T00:35:29;4.38;;;2.33;;
11797;SDS011;5956;51.428;6.682;2022-07-29T00:38:10;4.00;;;2.05;;
11797;SDS011;5956;51.428;6.682;2022-07-29T00:40:36;3.92;;;1.85;;
11797;SDS011;5956;51.428;6.682;2022-07-29T00:43:03;4.15;;;1.90;;
11797;SDS011;5956;51.428;6.682;2022-07-29T00:45:29;3.95;;;1.88;;
11797;SDS011;5956;51.428;6.682;2022-07-29T00:47:56;2.83;;;2.22;;
11797;SDS011;5956;51.428;6.682;2022-07-29T00:50:23;5.55;;;1.90;;
11797;SDS011;5956;51.428;6.682;2022-07-29T00:52:51;3.13;;;1.92;;
11797;SDS011;5956;51.428;6.682;2022-07-29T00:55:18;3.97;;;2.05;;
11797;SDS011;5956;51.428;6.682;2022-07-29T00:57:45;2.30;;;1.58;;
11797;SDS011;5956;51.428;6.682;2022-07-29T01:00:12;3.75;;;1.77;;
11797;SDS011;5956;51.428;6.682;2022-07-29T01:02:39;4.63;;;1.63;;
11797;SDS011;5956;51.428;6.682;2022-07-29T01:05:06;4.45;;;2.00;;
11797;SDS011;5956;51.428;6.682;2022-07-29T01:07:33;3.10;;;1.70;;
11797;SDS011;5956;51.428;6.682;2022-07-29T01:10:01;4.63;;;2.05;;
11797;SDS011;5956;51.428;6.682;2022-07-29T01:12:28;9.18;;;2.33;;
11797;SDS011;5956;51.428;6.682;2022-07-29T01:14:56;2.75;;;1.88;;
11797;SDS011;5956;51.428;6.682;2022-07-29T01:17:26;6.07;;;2.08;;
11797;SDS011;5956;51.428;6.682;2022-07-29T01:19:56;3.88;;;2.15;;
11797;SDS011;5956;51.428;6.682;2022-07-29T01:22:39;6.50;;;2.25;;
11797;SDS011;5956;51.428;6.682;2022-07-29T01:25:23;3.72;;;1.95;;
11797;SDS011;5956;51.428;6.682;2022-07-29T01:28:08;6.03;;;2.38;;
11797;SDS011;5956;51.428;6.682;2022-07-29T01:30:39;3.90;;;1.60;;
11797;SDS011;5956;51.428;6.682;2022-07-29T01:33:10;2.00;;;1.75;;
11797;SDS011;5956;51.428;6.682;2022-07-29T01:35:57;5.75;;;2.72;;
11797;SDS011;5956;51.428;6.682;2022-07-29T01:38:24;2.35;;;2.10;;
11797;SDS011;5956;51.428;6.682;2022-07-29T01:40:52;5.32;;;2.70;;
11797;SDS011;5956;51.428;6.682;2022-07-29T01:43:21;5.97;;;2.22;;
11797;SDS011;5956;51.428;6.682;2022-07-29T01:45:51;3.08;;;2.30;;
11797;SDS011;5956;51.428;6.682;2022-07-29T01:48:19;4.13;;;2.28;;
11797;SDS011;5956;51.428;6.682;2022-07-29T01:50:48;5.72;;;2.38;;
11797;SDS011;5956;51.428;6.682;2022-07-29T01:53:16;2.40;;;2.17;;
11797;SDS011;5956;51.428;6.682;2022-07-29T01:55:46;6.05;;;2.40;;
11797;SDS011;5956;51.428;6.682;2022-07-29T01:58:14;3.17;;;2.25;;
11797;SDS011;5956;51.428;6.682;2022-07-29T02:00:41;3.92;;;2.75;;
11797;SDS011;5956;51.428;6.682;2022-07-29T02:03:11;3.38;;;2.80;;
11797;SDS011;5956;51.428;6.682;2022-07-29T02:05:37;6.22;;;2.65;;
11797;SDS011;5956;51.428;6.682;2022-07-29T02:08:05;5.10;;;2.40;;
11797;SDS011;5956;51.428;6.682;2022-07-29T02:10:33;4.22;;;2.33;;
11797;SDS011;5956;51.428;6.682;2022-07-29T02:13:00;4.47;;;2.35;;
11797;SDS011;5956;51.428;6.682;2022-07-29T02:15:28;3.78;;;2.40;;
11797;SDS011;5956;51.428;6.682;2022-07-29T02:17:56;3.00;;;2.10;;
11797;SDS011;5956;51.428;6.682;2022-07-29T02:20:26;6.13;;;2.00;;
11797;SDS011;5956;51.428;6.682;2022-07-29T02:22:53;5.70;;;2.17;;
11797;SDS011;5956;51.428;6.682;2022-07-29T02:25:22;3.15;;;1.90;;
11797;SDS011;5956;51.428;6.682;2022-07-29T02:27:50;2.75;;;2.03;;
11797;SDS011;5956;51.428;6.682;2022-07-29T02:30:16;2.30;;;1.95;;
11797;SDS011;5956;51.428;6.682;2022-07-29T02:32:43;4.25;;;1.77;;
11797;SDS011;5956;51.428;6.682;2022-07-29T02:35:12;2.42;;;1.75;;
11797;SDS011;5956;51.428;6.682;2022-07-29T02:37:41;3.83;;;1.98;;
11797;SDS011;5956;51.428;6.682;2022-07-29T02:40:10;3.00;;;1.73;;
11797;SDS011;5956;51.428;6.682;2022-07-29T02:42:37;3.05;;;1.63;;
11797;SDS011;5956;51.428;6.682;2022-07-29T02:45:05;3.00;;;1.55;;
11797;SDS011;5956;51.428;6.682;2022-07-29T02:47:34;3.17;;;1.80;;
11797;SDS011;5956;51.428;6.682;2022-07-29T02:50:02;5.97;;;1.98;;
11797;SDS011;5956;51.428;6.682;2022-07-29T02:52:35;3.65;;;1.50;;
11797;SDS011;5956;51.428;6.682;2022-07-29T02:55:07;2.65;;;1.60;;
11797;SDS011;5956;51.428;6.682;2022-07-29T02:57:38;3.38;;;1.73;;
11797;SDS011;5956;51.428;6.682;2022-07-29T03:00:07;3.50;;;2.03;;
11797;SDS011;5956;51.428;6.682;2022-07-29T03:02:35;2.17;;;1.50;;
11797;SDS011;5956;51.428;6.682;2022-07-29T03:05:03;3.90;;;1.52;;
11797;SDS011;5956;51.428;6.682;2022-07-29T03:07:30;2.70;;;1.70;;
11797;SDS011;5956;51.428;6.682;2022-07-29T03:09:57;3.38;;;1.75;;
11797;SDS011;5956;51.428;6.682;2022-07-29T03:12:25;3.35;;;1.92;;
11797;SDS011;5956;51.428;6.682;2022-07-29T03:14:53;3.20;;;1.92;;
11797;SDS011;5956;51.428;6.682;2022-07-29T03:17:19;2.70;;;1.60;;
11797;SDS011;5956;51.428;6.682;2022-07-29T03:19:47;3.28;;;1.67;;
11797;SDS011;5956;51.428;6.682;2022-07-29T03:22:13;4.45;;;2.17;;
11797;SDS011;5956;51.428;6.682;2022-07-29T03:24:40;4.55;;;1.60;;
11797;SDS011;5956;51.428;6.682;2022-07-29T03:27:07;1.65;;;1.55;;
11797;SDS011;5956;51.428;6.682;2022-07-29T03:29:35;2.22;;;1.38;;
11797;SDS011;5956;51.428;6.682;2022-07-29T03:32:02;2.55;;;1.52;;
11797;SDS011;5956;51.428;6.682;2022-07-29T03:34:29;2.65;;;1.50;;
11797;SDS011;5956;51.428;6.682;2022-07-29T03:36:56;2.65;;;1.90;;
11797;SDS011;5956;51.428;6.682;2022-07-29T03:39:23;3.13;;;1.70;;
11797;SDS011;5956;51.428;6.682;2022-07-29T03:41:52;5.22;;;1.77;;
11797;SDS011;5956;51.428;6.682;2022-07-29T03:44:20;5.00;;;1.88;;
11797;SDS011;5956;51.428;6.682;2022-07-29T03:46:48;5.78;;;1.73;;
11797;SDS011;5956;51.428;6.682;2022-07-29T03:49:15;2.63;;;1.75;;
11797;SDS011;5956;51.428;6.682;2022-07-29T03:51:42;3.92;;;2.05;;
11797;SDS011;5956;51.428;6.682;2022-07-29T03:54:09;2.88;;;1.75;;
11797;SDS011;5956;51.428;6.682;2022-07-29T03:56:37;2.97;;;1.83;;
11797;SDS011;5956;51.428;6.682;2022-07-29T03:59:04;2.20;;;1.50;;
11797;SDS011;5956;51.428;6.682;2022-07-29T04:01:31;3.10;;;1.70;;
11797;SDS011;5956;51.428;6.682;2022-07-29T04:04:00;4.75;;;1.95;;
11797;SDS011;5956;51.428;6.682;2022-07-29T04:06:27;5.97;;;2.33;;
11797;SDS011;5956;51.428;6.682;2022-07-29T04:08:53;3.22;;;2.22;;
11797;SDS011;5956;51.428;6.682;2022-07-29T04:11:20;7.22;;;2.40;;
11797;SDS011;5956;51.428;6.682;2022-07-29T04:13:46;5.20;;;2.25;;
11797;SDS011;5956;51.428;6.682;2022-07-29T04:16:13;5.15;;;2.38;;
11797;SDS011;5956;51.428;6.682;2022-07-29T04:18:39;6.70;;;2.40;;
11797;SDS011;5956;51.428;6.682;2022-07-29T04:21:07;3.33;;;2.25;;
11797;SDS011;5956;51.428;6.682;2022-07-29T04:23:34;7.18;;;2.58;;
11797;SDS011;5956;51.428;6.682;2022-07-29T04:26:00;5.57;;;2.35;;
11797;SDS011;5956;51.428;6.682;2022-07-29T04:28:27;3.50;;;2.45;;
11797;SDS011;5956;51.428;6.682;2022-07-29T04:30:53;6.55;;;2.45;;
11797;SDS011;5956;51.428;6.682;2022-07-29T04:33:20;3.10;;;2.40;;
11797;SDS011;5956;51.428;6.682;2022-07-29T04:35:46;4.22;;;2.58;;
11797;SDS011;5956;51.428;6.682;2022-07-29T04:38:14;4.97;;;2.60;;
11797;SDS011;5956;51.428;6.682;2022-07-29T04:40:41;3.85;;;2.70;;
11797;SDS011;5956;51.428;6.682;2022-07-29T04:43:07;5.25;;;2.90;;
11797;SDS011;5956;51.428;6.682;2022-07-29T04:45:34;3.28;;;2.45;;
11797;SDS011;5956;51.428;6.682;2022-07-29T04:48:00;5.50;;;2.50;;
11797;SDS011;5956;51.428;6.682;2022-07-29T04:50:27;3.08;;;2.30;;
11797;SDS011;5956;51.428;6.682;2022-07-29T04:52:54;3.38;;;2.78;;
11797;SDS011;5956;51.428;6.682;2022-07-29T04:55:22;3.78;;;2.67;;
11797;SDS011;5956;51.428;6.682;2022-07-29T04:57:48;5.07;;;2.70;;
11797;SDS011;5956;51.428;6.682;2022-07-29T05:00:15;4.75;;;2.88;;
11797;SDS011;5956;51.428;6.682;2022-07-29T05:02:41;5.07;;;2.67;;
11797;SDS011;5956;51.428;6.682;2022-07-29T05:05:08;3.70;;;2.50;;
11797;SDS011;5956;51.428;6.682;2022-07-29T05:07:34;5.57;;;2.90;;
11797;SDS011;5956;51.428;6.682;2022-07-29T05:10:01;3.03;;;2.83;;
11797;SDS011;5956;51.428;6.682;2022-07-29T05:12:29;4.43;;;2.75;;
11797;SDS011;5956;51.428;6.682;2022-07-29T05:14:55;4.20;;;2.50;;
11797;SDS011;5956;51.428;6.682;2022-07-29T05:17:22;2.70;;;2.50;;
11797;SDS011;5956;51.428;6.682;2022-07-29T05:19:48;4.63;;;2.95;;
11797;SDS011;5956;51.428;6.682;2022-07-29T05:22:16;6.57;;;3.40;;
11797;SDS011;5956;51.428;6.682;2022-07-29T05:24:43;3.50;;;3.20;;
11797;SDS011;5956;51.428;6.682;2022-07-29T05:27:09;7.05;;;3.75;;
11797;SDS011;5956;51.428;6.682;2022-07-29T05:29:37;4.30;;;3.28;;
11797;SDS011;5956;51.428;6.682;2022-07-29T05:32:04;4.15;;;3.80;;
11797;SDS011;5956;51.428;6.682;2022-07-29T05:34:30;7.93;;;4.18;;
11797;SDS011;5956;51.428;6.682;2022-07-29T05:36:57;6.40;;;3.90;;
11797;SDS011;5956;51.428;6.682;2022-07-29T05:39:23;5.50;;;3.92;;
11797;SDS011;5956;51.428;6.682;2022-07-29T05:41:50;8.73;;;3.78;;
11797;SDS011;5956;51.428;6.682;2022-07-29T05:44:16;7.35;;;3.20;;
11797;SDS011;5956;51.428;6.682;2022-07-29T05:46:44;7.15;;;3.13;;
11797;SDS011;5956;51.428;6.682;2022-07-29T05:49:11;9.00;;;3.53;;
11797;SDS011;5956;51.428;6.682;2022-07-29T05:51:37;5.72;;;3.20;;
11797;SDS011;5956;51.428;6.682;2022-07-29T05:54:04;5.40;;;3.20;;
11797;SDS011;5956;51.428;6.682;2022-07-29T05:56:31;6.50;;;3.40;;
11797;SDS011;5956;51.428;6.682;2022-07-29T05:59:00;4.85;;;3.67;;
11797;SDS011;5956;51.428;6.682;2022-07-29T06:01:27;6.85;;;2.85;;
11797;SDS011;5956;51.428;6.682;2022-07-29T06:03:54;5.75;;;2.65;;
11797;SDS011;5956;51.428;6.682;2022-07-29T06:06:21;6.63;;;2.95;;
11797;SDS011;5956;51.428;6.682;2022-07-29T06:08:47;4.63;;;2.80;;
11797;SDS011;5956;51.428;6.682;2022-07-29T06:11:14;7.40;;;2.83;;
11797;SDS011;5956;51.428;6.682;2022-07-29T06:13:40;3.05;;;2.60;;
11797;SDS011;5956;51.428;6.682;2022-07-29T06:16:07;6.00;;;3.20;;
11797;SDS011;5956;51.428;6.682;2022-07-29T06:18:33;6.35;;;2.78;;
11797;SDS011;5956;51.428;6.682;2022-07-29T06:21:01;5.47;;;3.08;;
11797;SDS011;5956;51.428;6.682;2022-07-29T06:23:33;4.90;;;2.67;;
11797;SDS011;5956;51.428;6.682;2022-07-29T06:26:00;3.10;;;2.80;;
11797;SDS011;5956;51.428;6.682;2022-07-29T06:28:26;3.65;;;2.50;;
11797;SDS011;5956;51.428;6.682;2022-07-29T06:30:53;3.78;;;2.90;;
11797;SDS011;5956;51.428;6.682;2022-07-29T06:33:19;4.35;;;3.10;;
11797;SDS011;5956;51.428;6.682;2022-07-29T06:35:46;4.43;;;2.50;;
11797;SDS011;5956;51.428;6.682;2022-07-29T06:38:15;6.13;;;3.08;;
11797;SDS011;5956;51.428;6.682;2022-07-29T06:40:41;3.20;;;2.90;;
11797;SDS011;5956;51.428;6.682;2022-07-29T06:43:27;4.50;;;2.58;;
11797;SDS011;5956;51.428;6.682;2022-07-29T06:45:56;4.40;;;2.80;;
11797;SDS011;5956;51.428;6.682;2022-07-29T06:48:23;6.22;;;2.60;;
11797;SDS011;5956;51.428;6.682;2022-07-29T06:50:49;7.05;;;3.08;;
11797;SDS011;5956;51.428;6.682;2022-07-29T06:53:17;3.88;;;2.97;;
11797;SDS011;5956;51.428;6.682;2022-07-29T06:55:44;5.40;;;2.97;;
11797;SDS011;5956;51.428;6.682;2022-07-29T06:58:10;5.30;;;3.28;;
11797;SDS011;5956;51.428;6.682;2022-07-29T07:00:39;5.00;;;3.00;;
11797;SDS011;5956;51.428;6.682;2022-07-29T07:03:05;10.13;;;3.63;;
11797;SDS011;5956;51.428;6.682;2022-07-29T07:05:32;3.95;;;3.03;;
11797;SDS011;5956;51.428;6.682;2022-07-29T07:07:58;7.20;;;3.50;;
11797;SDS011;5956;51.428;6.682;2022-07-29T07:10:26;4.63;;;3.22;;
11797;SDS011;5956;51.428;6.682;2022-07-29T07:12:53;4.18;;;3.25;;
11797;SDS011;5956;51.428;6.682;2022-07-29T07:15:19;7.80;;;3.88;;
11797;SDS011;5956;51.428;6.682;2022-07-29T07:17:47;5.93;;;3.33;;
11797;SDS011;5956;51.428;6.682;2022-07-29T07:20:13;6.50;;;3.38;;
11797;SDS011;5956;51.428;6.682;2022-07-29T07:22:40;4.22;;;3.20;;
11797;SDS011;5956;51.428;6.682;2022-07-29T07:25:06;5.38;;;2.78;;
11797;SDS011;5956;51.428;6.682;2022-07-29T07:27:35;4.88;;;3.55;;
11797;SDS011;5956;51.428;6.682;2022-07-29T07:30:02;3.92;;;3.33;;
11797;SDS011;5956;51.428;6.682;2022-07-29T07:32:28;4.55;;;3.20;;
11797;SDS011;5956;51.428;6.682;2022-07-29T07:34:55;4.50;;;3.60;;
11797;SDS011;5956;51.428;6.682;2022-07-29T07:37:21;5.45;;;3.78;;
11797;SDS011;5956;51.428;6.682;2022-07-29T07:39:49;4.40;;;4.00;;
11797;SDS011;5956;51.428;6.682;2022-07-29T07:42:16;5.78;;;3.90;;
11797;SDS011;5956;51.428;6.682;2022-07-29T07:44:44;9.27;;;4.40;;
11797;SDS011;5956;51.428;6.682;2022-07-29T07:47:13;6.80;;;4.47;;
11797;SDS011;5956;51.428;6.682;2022-07-29T07:49:40;7.32;;;4.85;;
11797;SDS011;5956;51.428;6.682;2022-07-29T07:52:07;7.40;;;5.05;;
11797;SDS011;5956;51.428;6.682;2022-07-29T07:54:33;5.43;;;4.82;;
11797;SDS011;5956;51.428;6.682;2022-07-29T07:57:01;7.20;;;5.03;;
11797;SDS011;5956;51.428;6.682;2022-07-29T07:59:27;5.50;;;4.43;;
11797;SDS011;5956;51.428;6.682;2022-07-29T08:01:55;7.30;;;5.20;;
11797;SDS011;5956;51.428;6.682;2022-07-29T08:04:22;8.23;;;4.80;;
11797;SDS011;5956;51.428;6.682;2022-07-29T08:06:48;7.70;;;4.90;;
11797;SDS011;5956;51.428;6.682;2022-07-29T08:09:15;8.25;;;5.40;;
11797;SDS011;5956;51.428;6.682;2022-07-29T08:11:42;9.68;;;5.93;;
11797;SDS011;5956;51.428;6.682;2022-07-29T08:14:08;7.68;;;5.68;;
11797;SDS011;5956;51.428;6.682;2022-07-29T08:16:35;10.10;;;6.10;;
11797;SDS011;5956;51.428;6.682;2022-07-29T08:19:03;7.63;;;5.78;;
11797;SDS011;5956;51.428;6.682;2022-07-29T08:21:29;6.82;;;6.20;;
11797;SDS011;5956;51.428;6.682;2022-07-29T08:23:56;10.00;;;6.18;;
11797;SDS011;5956;51.428;6.682;2022-07-29T08:26:36;10.15;;;6.32;;
11797;SDS011;5956;51.428;6.682;2022-07-29T08:29:03;7.53;;;6.38;;
11797;SDS011;5956;51.428;6.682;2022-07-29T08:31:29;8.13;;;6.40;;
11797;SDS011;5956;51.428;6.682;2022-07-29T08:33:56;6.22;;;5.63;;
11797;SDS011;5956;51.428;6.682;2022-07-29T08:36:26;6.75;;;5.72;;
11797;SDS011;5956;51.428;6.682;2022-07-29T08:38:52;8.27;;;6.15;;
11797;SDS011;5956;51.428;6.682;2022-07-29T08:41:19;9.20;;;5.63;;
11797;SDS011;5956;51.428;6.682;2022-07-29T08:43:45;9.30;;;6.05;;
11797;SDS011;5956;51.428;6.682;2022-07-29T08:46:12;8.55;;;5.78;;
11797;SDS011;5956;51.428;6.682;2022-07-29T08:48:39;8.88;;;5.85;;
11797;SDS011;5956;51.428;6.682;2022-07-29T08:51:07;8.90;;;5.78;;
11797;SDS011;5956;51.428;6.682;2022-07-29T08:53:36;9.10;;;5.80;;
11797;SDS011;5956;51.428;6.682;2022-07-29T08:56:03;9.23;;;5.68;;
11797;SDS011;5956;51.428;6.682;2022-07-29T08:58:31;6.38;;;5.78;;
11797;SDS011;5956;51.428;6.682;2022-07-29T09:00:58;9.07;;;5.47;;
11797;SDS011;5956;51.428;6.682;2022-07-29T09:03:30;7.97;;;5.90;;
11797;SDS011;5956;51.428;6.682;2022-07-29T09:05:57;10.77;;;6.00;;
11797;SDS011;5956;51.428;6.682;2022-07-29T09:08:24;13.30;;;6.38;;
11797;SDS011;5956;51.428;6.682;2022-07-29T09:10:52;7.95;;;5.60;;
11797;SDS011;5956;51.428;6.682;2022-07-29T09:13:19;10.57;;;6.18;;
11797;SDS011;5956;51.428;6.682;2022-07-29T09:15:45;10.30;;;6.05;;
11797;SDS011;5956;51.428;6.682;2022-07-29T09:18:12;8.13;;;5.57;;
11797;SDS011;5956;51.428;6.682;2022-07-29T09:20:38;8.48;;;6.18;;
11797;SDS011;5956;51.428;6.682;2022-07-29T09:23:22;6.78;;;5.45;;
11797;SDS011;5956;51.428;6.682;2022-07-29T09:25:49;12.57;;;6.65;;
11797;SDS011;5956;51.428;6.682;2022-07-29T09:28:17;7.82;;;5.15;;
11797;SDS011;5956;51.428;6.682;2022-07-29T09:30:49;10.82;;;5.72;;
11797;SDS011;5956;51.428;6.682;2022-07-29T09:33:16;11.45;;;5.13;;
11797;SDS011;5956;51.428;6.682;2022-07-29T09:35:43;7.40;;;5.15;;
11797;SDS011;5956;51.428;6.682;2022-07-29T09:38:10;7.60;;;4.72;;
11797;SDS011;5956;51.428;6.682;2022-07-29T09:40:36;8.02;;;5.22;;
11797;SDS011;5956;51.428;6.682;2022-07-29T09:43:09;7.80;;;4.80;;
11797;SDS011;5956;51.428;6.682;2022-07-29T09:45:37;6.95;;;5.35;;
11797;SDS011;5956;51.428;6.682;2022-07-29T09:48:12;8.32;;;4.90;;
11797;SDS011;5956;51.428;6.682;2022-07-29T09:50:39;7.22;;;4.75;;
11797;SDS011;5956;51.428;6.682;2022-07-29T09:53:07;6.57;;;4.75;;
11797;SDS011;5956;51.428;6.682;2022-07-29T09:55:45;5.00;;;4.50;;
11797;SDS011;5956;51.428;6.682;2022-07-29T09:58:15;8.35;;;5.30;;
11797;SDS011;5956;51.428;6.682;2022-07-29T10:00:44;8.60;;;4.82;;
11797;SDS011;5956;51.428;6.682;2022-07-29T10:03:11;5.45;;;4.53;;
11797;SDS011;5956;51.428;6.682;2022-07-29T10:05:38;8.57;;;4.53;;
11797;SDS011;5956;51.428;6.682;2022-07-29T10:08:07;7.75;;;4.75;;
11797;SDS011;5956;51.428;6.682;2022-07-29T10:10:35;4.57;;;4.03;;
11797;SDS011;5956;51.428;6.682;2022-07-29T10:13:03;7.90;;;4.43;;
11797;SDS011;5956;51.428;6.682;2022-07-29T10:15:31;6.78;;;4.80;;
11797;SDS011;5956;51.428;6.682;2022-07-29T10:17:59;6.20;;;4.90;;
11797;SDS011;5956;51.428;6.682;2022-07-29T10:20:26;8.35;;;5.50;;
11797;SDS011;5956;51.428;6.682;2022-07-29T10:22:53;5.50;;;4.68;;
11797;SDS011;5956;51.428;6.682;2022-07-29T10:25:20;7.82;;;5.30;;
11797;SDS011;5956;51.428;6.682;2022-07-29T10:27:47;8.13;;;4.80;;
11797;SDS011;5956;51.428;6.682;2022-07-29T10:30:16;8.68;;;5.90;;
11797;SDS011;5956;51.428;6.682;2022-07-29T10:32:48;8.43;;;6.20;;
11797;SDS011;5956;51.428;6.682;2022-07-29T10:38:27;8.57;;;6.32;;
11797;SDS011;5956;51.428;6.682;2022-07-29T10:40:58;10.10;;;6.47;;
11797;SDS011;5956;51.428;6.682;2022-07-29T10:43:45;10.95;;;6.18;;
11797;SDS011;5956;51.428;6.682;2022-07-29T10:46:12;11.30;;;6.80;;
11797;SDS011;5956;51.428;6.682;2022-07-29T10:51:20;9.15;;;5.85;;
11797;SDS011;5956;51.428;6.682;2022-07-29T10:53:50;7.97;;;5.50;;
11797;SDS011;5956;51.428;6.682;2022-07-29T10:56:23;9.45;;;5.25;;
11797;SDS011;5956;51.428;6.682;2022-07-29T10:59:00;6.88;;;5.05;;
11797;SDS011;5956;51.428;6.682;2022-07-29T11:01:46;8.63;;;5.13;;
11797;SDS011;5956;51.428;6.682;2022-07-29T11:04:13;9.05;;;4.18;;
11797;SDS011;5956;51.428;6.682;2022-07-29T11:09:26;6.80;;;4.40;;
11797;SDS011;5956;51.428;6.682;2022-07-29T11:11:55;6.05;;;4.20;;
11797;SDS011;5956;51.428;6.682;2022-07-29T11:17:04;5.90;;;4.40;;
11797;SDS011;5956;51.428;6.682;2022-07-29T11:19:32;6.88;;;4.20;;
11797;SDS011;5956;51.428;6.682;2022-07-29T11:21:59;8.77;;;4.38;;
11797;SDS011;5956;51.428;6.682;2022-07-29T11:24:27;4.00;;;3.60;;
11797;SDS011;5956;51.428;6.682;2022-07-29T11:27:12;4.30;;;3.30;;
11797;SDS011;5956;51.428;6.682;2022-07-29T11:29:39;6.50;;;4.15;;
11797;SDS011;5956;51.428;6.682;2022-07-29T11:32:09;6.10;;;4.55;;
11797;SDS011;5956;51.428;6.682;2022-07-29T11:34:36;10.48;;;9.25;;
11797;SDS011;5956;51.428;6.682;2022-07-29T11:37:18;5.47;;;4.20;;
11797;SDS011;5956;51.428;6.682;2022-07-29T11:39:47;7.82;;;5.07;;
11797;SDS011;5956;51.428;6.682;2022-07-29T11:45:02;5.50;;;4.03;;
11797;SDS011;5956;51.428;6.682;2022-07-29T11:47:30;8.07;;;4.47;;
11797;SDS011;5956;51.428;6.682;2022-07-29T11:49:58;8.23;;;4.40;;
11797;SDS011;5956;51.428;6.682;2022-07-29T11:52:31;6.75;;;3.80;;
11797;SDS011;5956;51.428;6.682;2022-07-29T11:55:00;6.72;;;3.38;;
11797;SDS011;5956;51.428;6.682;2022-07-29T11:57:28;5.97;;;3.63;;
11797;SDS011;5956;51.428;6.682;2022-07-29T11:59:55;5.07;;;3.13;;
11797;SDS011;5956;51.428;6.682;2022-07-29T12:02:21;5.35;;;3.33;;
11797;SDS011;5956;51.428;6.682;2022-07-29T12:04:48;7.47;;;3.78;;
11797;SDS011;5956;51.428;6.682;2022-07-29T12:07:15;3.40;;;2.40;;
11797;SDS011;5956;51.428;6.682;2022-07-29T12:09:48;6.57;;;3.35;;
11797;SDS011;5956;51.428;6.682;2022-07-29T12:12:17;4.25;;;3.15;;
11797;SDS011;5956;51.428;6.682;2022-07-29T12:14:43;5.75;;;3.42;;
11797;SDS011;5956;51.428;6.682;2022-07-29T12:17:24;4.20;;;2.75;;
11797;SDS011;5956;51.428;6.682;2022-07-29T12:19:51;4.35;;;2.60;;
11797;SDS011;5956;51.428;6.682;2022-07-29T12:22:24;4.50;;;2.55;;
11797;SDS011;5956;51.428;6.682;2022-07-29T12:24:51;4.03;;;2.55;;
11797;SDS011;5956;51.428;6.682;2022-07-29T12:27:19;5.25;;;2.60;;
11797;SDS011;5956;51.428;6.682;2022-07-29T12:29:45;5.50;;;2.63;;
11797;SDS011;5956;51.428;6.682;2022-07-29T12:32:21;4.43;;;2.53;;
11797;SDS011;5956;51.428;6.682;2022-07-29T12:34:47;4.28;;;2.55;;
11797;SDS011;5956;51.428;6.682;2022-07-29T12:37:14;3.30;;;2.60;;
11797;SDS011;5956;51.428;6.682;2022-07-29T12:39:41;4.88;;;2.58;;
11797;SDS011;5956;51.428;6.682;2022-07-29T12:42:11;3.65;;;2.75;;
11797;SDS011;5956;51.428;6.682;2022-07-29T12:44:49;4.03;;;2.90;;
11797;SDS011;5956;51.428;6.682;2022-07-29T12:47:16;6.20;;;2.80;;
11797;SDS011;5956;51.428;6.682;2022-07-29T12:49:43;8.63;;;2.70;;
11797;SDS011;5956;51.428;6.682;2022-07-29T12:52:28;3.97;;;2.75;;
11797;SDS011;5956;51.428;6.682;2022-07-29T12:54:55;2.92;;;2.55;;
11797;SDS011;5956;51.428;6.682;2022-07-29T12:57:22;4.15;;;2.53;;
11797;SDS011;5956;51.428;6.682;2022-07-29T13:00:04;4.85;;;3.10;;
11797;SDS011;5956;51.428;6.682;2022-07-29T13:02:32;3.92;;;3.13;;
11797;SDS011;5956;51.428;6.682;2022-07-29T13:04:59;3.38;;;2.70;;
11797;SDS011;5956;51.428;6.682;2022-07-29T13:07:27;3.90;;;2.60;;
11797;SDS011;5956;51.428;6.682;2022-07-29T13:09:54;2.88;;;2.58;;
11797;SDS011;5956;51.428;6.682;2022-07-29T13:12:35;6.45;;;3.60;;
11797;SDS011;5956;51.428;6.682;2022-07-29T13:15:11;4.20;;;2.60;;
11797;SDS011;5956;51.428;6.682;2022-07-29T13:17:40;4.80;;;2.70;;
11797;SDS011;5956;51.428;6.682;2022-07-29T13:20:09;3.60;;;2.65;;
11797;SDS011;5956;51.428;6.682;2022-07-29T13:22:37;2.70;;;2.50;;
11797;SDS011;5956;51.428;6.682;2022-07-29T13:25:04;4.70;;;2.30;;
11797;SDS011;5956;51.428;6.682;2022-07-29T13:27:32;3.28;;;2.78;;
11797;SDS011;5956;51.428;6.682;2022-07-29T13:29:59;4.85;;;2.42;;
11797;SDS011;5956;51.428;6.682;2022-07-29T13:32:26;5.93;;;2.90;;
11797;SDS011;5956;51.428;6.682;2022-07-29T13:34:55;2.90;;;2.50;;
11797;SDS011;5956;51.428;6.682;2022-07-29T13:37:22;2.38;;;2.20;;
11797;SDS011;5956;51.428;6.682;2022-07-29T13:39:48;2.83;;;2.08;;
11797;SDS011;5956;51.428;6.682;2022-07-29T13:42:15;2.65;;;2.33;;
11797;SDS011;5956;51.428;6.682;2022-07-29T13:44:41;3.38;;;2.60;;
11797;SDS011;5956;51.428;6.682;2022-07-29T13:47:08;6.50;;;2.67;;
11797;SDS011;5956;51.428;6.682;2022-07-29T13:49:34;4.85;;;2.70;;
11797;SDS011;5956;51.428;6.682;2022-07-29T13:52:03;4.25;;;2.72;;
11797;SDS011;5956;51.428;6.682;2022-07-29T13:54:32;4.63;;;2.67;;
11797;SDS011;5956;51.428;6.682;2022-07-29T13:57:02;4.85;;;2.70;;
11797;SDS011;5956;51.428;6.682;2022-07-29T13:59:29;3.92;;;2.42;;
11797;SDS011;5956;51.428;6.682;2022-07-29T14:01:55;3.88;;;3.00;;
11797;SDS011;5956;51.428;6.682;2022-07-29T14:04:22;3.75;;;3.13;;
11797;SDS011;5956;51.428;6.682;2022-07-29T14:06:49;4.28;;;2.67;;
11797;SDS011;5956;51.428;6.682;2022-07-29T14:09:17;3.80;;;2.58;;
11797;SDS011;5956;51.428;6.682;2022-07-29T14:11:43;4.20;;;2.67;;
11797;SDS011;5956;51.428;6.682;2022-07-29T14:14:11;4.78;;;2.70;;
11797;SDS011;5956;51.428;6.682;2022-07-29T14:16:37;4.20;;;3.08;;
11797;SDS011;5956;51.428;6.682;2022-07-29T14:19:04;5.38;;;3.33;;
11797;SDS011;5956;51.428;6.682;2022-07-29T14:21:30;6.40;;;2.97;;
11797;SDS011;5956;51.428;6.682;2022-07-29T14:23:57;4.68;;;2.47;;
11797;SDS011;5956;51.428;6.682;2022-07-29T14:26:25;6.60;;;3.15;;
11797;SDS011;5956;51.428;6.682;2022-07-29T14:28:51;4.20;;;2.35;;
11797;SDS011;5956;51.428;6.682;2022-07-29T14:31:18;2.97;;;2.65;;
11797;SDS011;5956;51.428;6.682;2022-07-29T14:33:44;4.18;;;3.05;;
11797;SDS011;5956;51.428;6.682;2022-07-29T14:36:11;3.20;;;2.88;;
11797;SDS011;5956;51.428;6.682;2022-07-29T14:38:37;3.20;;;2.65;;
11797;SDS011;5956;51.428;6.682;2022-07-29T14:41:05;2.42;;;2.20;;
11797;SDS011;5956;51.428;6.682;2022-07-29T14:43:34;5.47;;;2.40;;
11797;SDS011;5956;51.428;6.682;2022-07-29T14:46:00;3.20;;;2.05;;
11797;SDS011;5956;51.428;6.682;2022-07-29T14:48:27;3.33;;;1.98;;
11797;SDS011;5956;51.428;6.682;2022-07-29T14:50:53;6.45;;;2.72;;
11797;SDS011;5956;51.428;6.682;2022-07-29T14:53:21;3.97;;;2.38;;
11797;SDS011;5956;51.428;6.682;2022-07-29T14:55:47;3.65;;;2.45;;
11797;SDS011;5956;51.428;6.682;2022-07-29T14:58:14;3.70;;;2.20;;
11797;SDS011;5956;51.428;6.682;2022-07-29T15:00:42;2.40;;;2.20;;
11797;SDS011;5956;51.428;6.682;2022-07-29T15:03:09;3.95;;;2.10;;
11797;SDS011;5956;51.428;6.682;2022-07-29T15:05:35;4.57;;;2.40;;
11797;SDS011;5956;51.428;6.682;2022-07-29T15:08:02;3.95;;;2.22;;
11797;SDS011;5956;51.428;6.682;2022-07-29T15:10:28;2.47;;;2.17;;
11797;SDS011;5956;51.428;6.682;2022-07-29T15:12:55;3.65;;;2.17;;
11797;SDS011;5956;51.428;6.682;2022-07-29T15:15:22;3.50;;;2.30;;
11797;SDS011;5956;51.428;6.682;2022-07-29T15:17:50;3.13;;;2.40;;
11797;SDS011;5956;51.428;6.682;2022-07-29T15:20:16;3.80;;;2.15;;